Time;durP1;ratioP1;P1;durP2;ratioP2;P2;SDS_P1;SDS_P2;PMS_P1;PMS_P2;Temp;Humidity;BMP_temperature;BMP_pressure;BME280_temperature;BME280_humidity;BME280_pressure;Samples;Min_cycle;Max_cycle;Signal;HPM_P1;HPM_P2
2023/07/19 00:00:16;;;;;;;6.63;3.80;;;15.90;99.90;;;;;;5075435;28;20053;-26
2023/07/19 00:02:42;;;;;;;5.25;3.58;;;15.80;99.90;;;;;;5074406;28;20047;-26
2023/07/19 00:05:09;;;;;;;7.78;3.70;;;15.90;99.90;;;;;;5074613;28;20044;-26
2023/07/19 00:07:35;;;;;;;4.45;3.08;;;15.80;99.90;;;;;;5075916;28;20088;-26
2023/07/19 00:10:00;;;;;;;4.00;2.95;;;15.90;99.90;;;;;;5076223;28;20103;-26
2023/07/19 00:12:26;;;;;;;6.68;3.67;;;15.80;99.90;;;;;;5075358;28;20529;-26
2023/07/19 00:14:52;;;;;;;8.65;3.20;;;15.90;99.90;;;;;;5076138;28;20048;-26
2023/07/19 00:17:18;;;;;;;5.55;3.63;;;15.90;99.90;;;;;;5075208;28;20367;-26
2023/07/19 00:19:43;;;;;;;6.60;3.58;;;15.80;99.90;;;;;;5074533;28;20184;-26
2023/07/19 00:22:09;;;;;;;4.97;3.60;;;15.80;99.90;;;;;;5074856;28;20073;-26
2023/07/19 00:24:35;;;;;;;8.27;4.10;;;15.80;99.90;;;;;;5074036;28;20106;-26
2023/07/19 00:27:01;;;;;;;8.70;4.82;;;15.80;99.90;;;;;;5075312;28;20466;-26
2023/07/19 00:29:26;;;;;;;7.00;4.43;;;15.80;99.90;;;;;;5075590;28;20374;-26
2023/07/19 00:31:52;;;;;;;8.10;4.72;;;15.80;99.90;;;;;;5075565;28;20048;-26
2023/07/19 00:34:18;;;;;;;5.90;4.07;;;15.80;99.90;;;;;;5074891;28;20041;-26
2023/07/19 00:36:44;;;;;;;10.85;5.60;;;15.70;99.90;;;;;;5074871;28;20047;-26
2023/07/19 00:39:10;;;;;;;10.75;5.70;;;15.70;99.90;;;;;;5074796;28;20036;-26
2023/07/19 00:41:35;;;;;;;7.07;4.72;;;15.60;99.90;;;;;;5074799;28;20040;-26
2023/07/19 00:44:03;;;;;;;9.77;5.05;;;15.60;99.90;;;;;;5074689;28;20056;-26
2023/07/19 00:46:29;;;;;;;6.85;4.60;;;15.60;99.90;;;;;;5074879;28;20124;-26
2023/07/19 00:48:56;;;;;;;6.10;4.90;;;15.60;99.90;;;;;;5075448;28;20127;-27
2023/07/19 00:51:22;;;;;;;7.43;4.65;;;15.50;1.00;;;;;;5075384;28;20041;-27
2023/07/19 00:53:49;;;;;;;6.95;5.68;;;15.40;99.90;;;;;;5074513;28;20041;-26
2023/07/19 00:56:15;;;;;;;9.57;5.57;;;15.40;1.00;;;;;;5075046;28;20053;-26
2023/07/19 00:58:42;;;;;;;8.20;4.95;;;15.30;1.00;;;;;;5075234;28;20110;-26
2023/07/19 01:01:09;;;;;;;8.55;6.00;;;15.30;1.00;;;;;;5074918;28;20048;-26
2023/07/19 01:03:36;;;;;;;9.38;5.80;;;15.30;1.00;;;;;;5074918;28;20052;-26
2023/07/19 01:06:03;;;;;;;8.93;6.05;;;15.30;1.00;;;;;;5074226;28;20079;-26
2023/07/19 01:08:29;;;;;;;9.48;6.43;;;15.20;1.00;;;;;;5074221;28;20087;-26
2023/07/19 01:10:55;;;;;;;7.70;5.68;;;15.20;1.00;;;;;;5074266;28;20048;-26
2023/07/19 01:13:21;;;;;;;10.95;6.78;;;15.30;1.00;;;;;;5074201;28;20563;-26
2023/07/19 01:15:47;;;;;;;9.00;6.93;;;15.20;1.00;;;;;;5074960;28;20059;-26
2023/07/19 01:18:13;;;;;;;8.32;6.43;;;15.20;1.00;;;;;;5074094;28;20490;-26
2023/07/19 01:20:39;;;;;;;7.90;5.85;;;15.20;1.00;;;;;;5073454;28;20048;-27
2023/07/19 01:23:05;;;;;;;7.43;4.63;;;15.20;1.00;;;;;;5074003;28;20047;-26
2023/07/19 01:25:31;;;;;;;7.85;5.47;;;15.30;1.00;;;;;;5073774;28;20056;-26
2023/07/19 01:27:57;;;;;;;6.07;4.88;;;15.30;1.00;;;;;;5074009;28;20059;-26
2023/07/19 01:30:23;;;;;;;8.10;4.78;;;15.30;1.00;;;;;;5073939;28;20052;-27
2023/07/19 01:32:49;;;;;;;6.75;4.80;;;15.30;1.00;;;;;;5074734;28;20051;-26
2023/07/19 01:35:15;;;;;;;7.50;4.72;;;15.30;5.40;;;;;;5072032;28;20082;-26
2023/07/19 01:37:41;;;;;;;7.90;4.18;;;15.40;7.00;;;;;;5073425;28;20052;-27
2023/07/19 01:40:09;;;;;;;9.82;5.35;;;15.40;8.30;;;;;;5073772;28;20094;-27
2023/07/19 01:42:34;;;;;;;10.40;4.88;;;15.40;5.70;;;;;;5073060;28;20084;-26
2023/07/19 01:45:01;;;;;;;15.35;5.38;;;15.40;2.60;;;;;;5073763;28;20469;-26
2023/07/19 01:47:27;;;;;;;7.25;5.50;;;15.40;11.10;;;;;;5073614;28;20079;-26
2023/07/19 01:49:54;;;;;;;7.15;5.13;;;15.40;13.30;;;;;;5074250;28;20052;-27
2023/07/19 01:52:19;;;;;;;11.65;6.55;;;15.40;14.30;;;;;;5073634;28;20049;-26
2023/07/19 01:54:45;;;;;;;7.63;5.97;;;15.40;19.40;;;;;;5072417;28;20158;-26
2023/07/19 01:57:11;;;;;;;7.57;6.38;;;15.40;99.90;;;;;;5073652;28;20032;-26
2023/07/19 01:59:37;;;;;;;9.93;7.60;;;15.30;99.90;;;;;;5074168;28;20381;-26
2023/07/19 02:02:04;;;;;;;7.97;7.10;;;15.30;99.90;;;;;;5074408;28;20120;-26
2023/07/19 02:04:29;;;;;;;10.23;8.48;;;15.20;99.90;;;;;;5074078;28;20045;-26
2023/07/19 02:06:55;;;;;;;8.07;7.13;;;15.20;99.90;;;;;;5073747;28;20478;-26
2023/07/19 02:09:22;;;;;;;9.93;7.45;;;15.10;99.90;;;;;;5072332;28;20482;-26
2023/07/19 02:11:48;;;;;;;9.23;7.90;;;15.10;99.90;;;;;;5074308;28;20110;-26
2023/07/19 02:14:13;;;;;;;9.50;8.05;;;15.00;99.90;;;;;;5073453;28;20487;-26
2023/07/19 02:16:39;;;;;;;11.52;7.97;;;15.00;99.90;;;;;;5073298;28;20127;-26
2023/07/19 02:19:06;;;;;;;10.18;8.10;;;14.90;99.90;;;;;;5073668;28;20080;-26
2023/07/19 02:21:31;;;;;;;10.55;9.02;;;14.90;99.90;;;;;;5073371;28;20044;-26
2023/07/19 02:23:57;;;;;;;9.10;8.15;;;14.80;99.90;;;;;;5072661;28;20046;-26
2023/07/19 02:26:24;;;;;;;9.32;8.43;;;14.80;99.90;;;;;;5073342;28;20049;-27
2023/07/19 02:28:50;;;;;;;10.70;8.57;;;14.70;99.90;;;;;;5073572;28;20044;-26
2023/07/19 02:31:16;;;;;;;12.32;9.43;;;14.70;99.90;;;;;;5073288;28;20076;-26
2023/07/19 02:33:41;;;;;;;10.43;8.63;;;14.70;99.90;;;;;;5074092;28;20080;-26
2023/07/19 02:36:11;;;;;;;10.15;8.60;;;14.60;99.90;;;;;;5073233;28;20612;-26
2023/07/19 02:38:36;;;;;;;11.23;8.55;;;14.70;99.90;;;;;;5073057;28;20049;-27
2023/07/19 02:41:02;;;;;;;13.55;7.90;;;14.70;99.90;;;;;;5073240;28;20053;-26
2023/07/19 02:43:28;;;;;;;9.13;8.15;;;14.70;99.90;;;;;;5073169;28;20063;-26
2023/07/19 02:45:55;;;;;;;10.75;8.50;;;14.70;99.90;;;;;;5074484;28;20071;-26
2023/07/19 02:48:21;;;;;;;10.27;8.05;;;14.70;99.90;;;;;;5076929;28;20045;-26
2023/07/19 02:50:48;;;;;;;12.05;9.07;;;14.70;99.90;;;;;;5076901;28;20137;-26
2023/07/19 02:53:14;;;;;;;12.98;9.43;;;14.80;99.90;;;;;;5059115;28;20186;-26
2023/07/19 02:55:43;;;;;;;11.20;8.77;;;14.80;99.90;;;;;;5077585;28;20048;-26
2023/07/19 02:58:09;;;;;;;13.35;9.02;;;14.80;99.90;;;;;;5076790;28;20474;-26
2023/07/19 03:00:42;;;;;;;11.55;8.95;;;14.80;99.90;;;;;;5059122;28;20145;-26
2023/07/19 03:03:11;;;;;;;12.75;9.38;;;14.80;99.90;;;;;;5076742;28;20048;-26
2023/07/19 03:05:40;;;;;;;12.75;9.93;;;14.90;99.90;;;;;;5076544;28;20041;-26
2023/07/19 03:08:06;;;;;;;16.95;9.80;;;14.90;99.90;;;;;;5076194;28;20105;-26
2023/07/19 03:10:32;;;;;;;13.93;10.23;;;14.90;99.90;;;;;;5077349;28;20044;-26
2023/07/19 03:12:58;;;;;;;13.77;8.98;;;14.90;99.90;;;;;;5075297;28;20044;-26
2023/07/19 03:15:24;;;;;;;12.20;9.18;;;14.90;99.90;;;;;;5076466;28;20040;-26
2023/07/19 03:17:49;;;;;;;13.10;9.48;;;14.90;99.90;;;;;;5075244;28;20580;-26
2023/07/19 03:20:15;;;;;;;10.52;9.43;;;15.00;99.90;;;;;;5075401;28;20051;-27
2023/07/19 03:22:41;;;;;;;12.18;10.43;;;15.00;99.90;;;;;;5076606;28;20387;-26
2023/07/19 03:25:07;;;;;;;12.52;9.98;;;15.00;99.90;;;;;;5076418;28;20115;-27
2023/07/19 03:27:33;;;;;;;12.82;9.18;;;14.90;99.90;;;;;;5075845;28;20420;-27
2023/07/19 03:29:59;;;;;;;13.55;10.73;;;14.90;99.90;;;;;;5076172;28;20037;-26
2023/07/19 03:32:25;;;;;;;13.05;10.00;;;14.90;99.90;;;;;;5076001;28;20087;-26
2023/07/19 03:34:51;;;;;;;11.65;9.55;;;14.90;99.90;;;;;;5076736;28;20083;-26
2023/07/19 03:37:16;;;;;;;10.85;9.32;;;14.90;99.90;;;;;;5076042;28;20454;-26
2023/07/19 03:39:42;;;;;;;13.20;10.30;;;14.90;99.90;;;;;;5059178;28;20101;-26
2023/07/19 03:42:09;;;;;;;14.43;9.38;;;14.90;99.90;;;;;;5076009;28;20040;-26
2023/07/19 03:44:35;;;;;;;12.20;9.55;;;15.00;99.90;;;;;;5075903;28;20055;-26
2023/07/19 03:47:00;;;;;;;10.90;9.43;;;15.00;99.90;;;;;;5075846;28;20049;-26
2023/07/19 03:49:26;;;;;;;11.73;9.50;;;15.00;99.90;;;;;;5074654;28;20049;-26
2023/07/19 03:51:52;;;;;;;13.32;8.70;;;15.10;99.90;;;;;;5074591;28;20127;-26
2023/07/19 03:54:17;;;;;;;10.55;8.57;;;15.00;99.90;;;;;;5074580;28;20390;-26
2023/07/19 03:56:43;;;;;;;10.93;9.02;;;15.00;99.90;;;;;;5075776;28;20044;-26
2023/07/19 03:59:09;;;;;;;12.32;8.80;;;15.00;99.90;;;;;;5075496;28;20041;-26
2023/07/19 04:01:36;;;;;;;15.05;9.82;;;15.00;99.90;;;;;;5075580;28;20057;-26
2023/07/19 04:04:03;;;;;;;10.48;8.80;;;15.10;99.90;;;;;;5075411;28;20060;-26
2023/07/19 04:06:29;;;;;;;12.65;9.35;;;15.00;99.90;;;;;;5076049;28;20441;-26
2023/07/19 04:08:55;;;;;;;13.90;10.05;;;15.10;99.90;;;;;;5075459;28;20448;-26
2023/07/19 04:11:21;;;;;;;15.80;9.68;;;15.10;99.90;;;;;;5075405;28;20040;-26
2023/07/19 04:13:47;;;;;;;11.40;8.90;;;15.10;99.90;;;;;;5075420;28;20048;-26
2023/07/19 04:16:13;;;;;;;14.23;9.32;;;15.20;99.90;;;;;;5075308;28;20036;-26
2023/07/19 04:18:38;;;;;;;11.50;9.25;;;15.30;99.90;;;;;;5075265;28;20136;-26
2023/07/19 04:21:04;;;;;;;16.52;10.18;;;15.30;99.90;;;;;;5075207;28;20474;-26
2023/07/19 04:23:30;;;;;;;17.92;9.45;;;15.40;99.90;;;;;;5075705;28;20041;-26
2023/07/19 04:25:56;;;;;;;11.50;8.20;;;15.40;99.90;;;;;;5074941;28;20045;-26
2023/07/19 04:28:22;;;;;;;11.50;7.95;;;15.50;99.90;;;;;;5074096;28;20149;-26
2023/07/19 04:30:47;;;;;;;10.88;7.88;;;15.50;99.90;;;;;;5073892;28;20048;-26
2023/07/19 04:33:15;;;;;;;11.95;8.20;;;15.50;99.90;;;;;;5073839;28;20497;-26
2023/07/19 04:35:43;;;;;;;9.82;8.38;;;15.50;99.90;;;;;;5074899;28;20141;-26
2023/07/19 04:38:09;;;;;;;12.68;8.18;;;15.50;99.90;;;;;;5074846;28;20045;-25
2023/07/19 04:40:34;;;;;;;9.60;7.70;;;15.40;99.90;;;;;;5073851;28;20051;-26
2023/07/19 04:43:01;;;;;;;12.43;7.82;;;15.40;99.90;;;;;;5074762;28;20056;-26
2023/07/19 04:45:27;;;;;;;12.80;8.43;;;15.40;99.90;;;;;;5057272;28;20111;-26
2023/07/19 04:47:52;;;;;;;8.18;5.97;;;15.40;99.90;;;;;;5073545;28;20048;-26
2023/07/19 04:50:18;;;;;;;9.43;6.78;;;15.40;99.90;;;;;;5074661;28;20044;-26
2023/07/19 04:52:46;;;;;;;9.05;7.18;;;15.50;99.90;;;;;;5074875;28;20040;-25
2023/07/19 04:55:12;;;;;;;8.52;6.38;;;15.50;99.90;;;;;;5074589;28;20379;-26
2023/07/19 04:57:38;;;;;;;10.73;6.13;;;15.60;99.90;;;;;;5074493;28;20086;-25
2023/07/19 05:00:11;;;;;;;8.02;6.40;;;15.60;99.90;;;;;;5074329;28;20048;-26
2023/07/19 05:02:46;;;;;;;8.45;6.00;;;15.60;99.90;;;;;;5073542;28;20052;-26
2023/07/19 05:05:14;;;;;;;11.05;6.18;;;15.60;99.90;;;;;;5074959;28;20095;-27
2023/07/19 05:07:40;;;;;;;10.23;6.68;;;15.60;99.90;;;;;;5075102;28;20141;-26
2023/07/19 05:10:07;;;;;;;8.85;5.60;;;15.60;99.90;;;;;;5073213;28;20556;-25
2023/07/19 05:12:33;;;;;;;6.93;5.15;;;15.60;99.90;;;;;;5074186;28;20532;-25
2023/07/19 05:14:59;;;;;;;7.60;5.50;;;15.60;99.90;;;;;;5073480;28;20044;-26
2023/07/19 05:17:25;;;;;;;9.02;5.78;;;15.70;99.90;;;;;;5074429;28;20573;-26
2023/07/19 05:19:51;;;;;;;7.35;5.78;;;15.70;99.90;;;;;;5074133;28;20116;-26
2023/07/19 05:22:16;;;;;;;6.25;5.03;;;15.70;99.90;;;;;;5073386;28;20044;-26
2023/07/19 05:24:43;;;;;;;7.65;6.05;;;15.70;99.90;;;;;;5073818;28;20084;-25
2023/07/19 05:27:09;;;;;;;10.02;5.80;;;15.70;99.90;;;;;;5074220;28;20052;-26
2023/07/19 05:29:34;;;;;;;9.05;5.43;;;15.80;99.90;;;;;;5072865;28;20045;-26
2023/07/19 05:32:00;;;;;;;9.10;5.18;;;15.80;99.90;;;;;;5072846;28;20048;-26
2023/07/19 05:34:26;;;;;;;7.80;5.53;;;15.80;99.90;;;;;;5073781;28;20356;-26
2023/07/19 05:36:51;;;;;;;10.52;5.38;;;15.80;99.90;;;;;;5073923;28;20462;-25
2023/07/19 05:39:17;;;;;;;8.27;5.55;;;15.80;99.90;;;;;;5073824;28;20048;-26
2023/07/19 05:41:45;;;;;;;9.00;4.70;;;15.80;99.90;;;;;;5072907;28;20123;-26
2023/07/19 05:44:11;;;;;;;9.85;5.70;;;15.90;99.90;;;;;;5073495;28;20044;-26
2023/07/19 05:46:37;;;;;;;8.45;5.35;;;15.90;99.90;;;;;;5073711;28;20051;-26
2023/07/19 05:49:03;;;;;;;10.68;5.45;;;15.90;99.90;;;;;;5074574;28;20447;-26
2023/07/19 05:51:29;;;;;;;9.25;5.53;;;15.90;99.90;;;;;;5073387;28;20493;-26
2023/07/19 05:53:55;;;;;;;10.32;5.00;;;16.00;99.90;;;;;;5073712;28;20105;-26
2023/07/19 05:56:21;;;;;;;10.20;5.28;;;16.00;99.90;;;;;;5073655;28;20084;-25
2023/07/19 05:58:48;;;;;;;11.73;5.13;;;16.00;99.90;;;;;;5073629;28;20056;-25
2023/07/19 06:01:17;;;;;;;11.13;5.03;;;16.00;99.90;;;;;;5072946;28;20486;-24
2023/07/19 06:03:47;;;;;;;8.82;4.15;;;15.90;99.90;;;;;;5073582;28;20090;-25
2023/07/19 06:06:14;;;;;;;6.90;4.10;;;15.80;99.90;;;;;;5073442;28;20044;-25
2023/07/19 06:08:40;;;;;;;9.88;4.25;;;15.80;99.90;;;;;;5073540;28;20052;-25
2023/07/19 06:11:07;;;;;;;4.43;2.85;;;15.70;99.90;;;;;;5073563;28;20502;-25
2023/07/19 06:13:33;;;;;;;6.20;3.17;;;15.70;99.90;;;;;;5056099;28;20044;-25
2023/07/19 06:16:00;;;;;;;4.85;2.80;;;15.70;99.90;;;;;;5072535;28;20053;-25
2023/07/19 06:18:26;;;;;;;5.90;3.17;;;15.70;99.90;;;;;;5056058;28;20102;-26
2023/07/19 06:20:52;;;;;;;3.88;2.78;;;15.70;99.90;;;;;;5074871;28;20044;-25
2023/07/19 06:23:18;;;;;;;10.02;3.05;;;15.70;99.90;;;;;;5077493;28;20101;-26
2023/07/19 06:25:50;;;;;;;6.00;2.85;;;15.80;99.90;;;;;;5077333;28;20436;-25
2023/07/19 06:28:16;;;;;;;6.32;2.70;;;15.80;99.90;;;;;;5076426;28;20056;-26
2023/07/19 06:30:42;;;;;;;5.82;2.90;;;15.80;99.90;;;;;;5076627;28;20132;-25
2023/07/19 06:33:08;;;;;;;6.07;3.30;;;15.90;99.90;;;;;;5077282;28;20044;-25
2023/07/19 06:35:34;;;;;;;8.88;3.38;;;16.00;99.90;;;;;;5076560;28;20372;-26
2023/07/19 06:38:00;;;;;;;7.78;3.42;;;16.10;99.90;;;;;;5077742;28;20059;-26
2023/07/19 06:40:26;;;;;;;4.85;2.60;;;16.20;99.90;;;;;;5077705;28;20048;-25
2023/07/19 06:42:52;;;;;;;16.08;4.13;;;16.10;99.90;;;;;;5075986;28;20546;-25
2023/07/19 06:45:19;;;;;;;6.28;3.60;;;16.10;99.90;;;;;;5075848;28;20047;-25
2023/07/19 06:47:45;;;;;;;6.63;3.15;;;16.20;99.90;;;;;;5077491;28;20264;-25
2023/07/19 06:50:11;;;;;;;7.47;3.38;;;16.20;99.90;;;;;;5077516;28;20180;-25
2023/07/19 06:52:37;;;;;;;8.30;2.90;;;16.30;99.90;;;;;;5076896;28;20055;-25
2023/07/19 06:55:03;;;;;;;7.82;3.30;;;16.30;99.90;;;;;;5077725;28;20040;-25
2023/07/19 06:57:32;;;;;;;5.70;2.53;;;16.40;99.90;;;;;;5077349;28;20076;-25
2023/07/19 07:00:03;;;;;;;6.15;2.85;;;16.50;99.90;;;;;;5076737;28;20471;-25
2023/07/19 07:02:28;;;;;;;6.95;2.75;;;16.40;99.90;;;;;;5076783;28;20044;-26
2023/07/19 07:04:54;;;;;;;4.88;2.50;;;16.50;99.90;;;;;;5076623;28;20056;-25
2023/07/19 07:07:20;;;;;;;5.70;2.13;;;16.50;99.90;;;;;;5075340;28;20040;-25
2023/07/19 07:09:47;;;;;;;6.55;2.40;;;16.50;99.90;;;;;;5076554;28;20134;-26
2023/07/19 07:12:12;;;;;;;7.43;2.38;;;16.50;99.90;;;;;;5041998;28;20084;-25
2023/07/19 07:14:39;;;;;;;5.15;2.47;;;16.60;99.90;;;;;;5076503;28;20438;-25
2023/07/19 07:17:07;;;;;;;6.88;2.88;;;16.50;99.90;;;;;;5076969;28;20044;-25
2023/07/19 07:19:33;;;;;;;5.90;2.58;;;16.50;99.90;;;;;;5076426;28;20448;-26
2023/07/19 07:21:59;;;;;;;7.07;2.55;;;16.60;99.90;;;;;;5076645;28;20040;-25
2023/07/19 07:24:25;;;;;;;8.95;2.90;;;16.60;99.90;;;;;;5076805;28;20045;-25
2023/07/19 07:26:51;;;;;;;8.45;2.22;;;16.80;99.90;;;;;;5076836;28;20557;-25
2023/07/19 07:29:16;;;;;;;8.85;1.85;;;16.90;99.90;;;;;;5076277;28;20102;-25
2023/07/19 07:31:42;;;;;;;9.55;2.63;;;17.10;99.90;;;;;;5076153;28;20048;-25
2023/07/19 07:34:09;;;;;;;4.75;1.90;;;17.20;29.10;;;;;;5076782;28;20067;-26
2023/07/19 07:36:35;;;;;;;5.40;2.25;;;17.30;1.00;;;;;;5076684;28;20040;-26
2023/07/19 07:39:01;;;;;;;4.65;1.90;;;17.40;1.00;;;;;;5075097;28;20074;-26
2023/07/19 07:41:26;;;;;;;5.03;2.38;;;17.40;99.90;;;;;;5076001;28;20127;-27
2023/07/19 07:43:52;;;;;;;5.15;1.83;;;17.40;1.00;;;;;;5075960;28;20050;-25
2023/07/19 07:46:18;;;;;;;4.65;1.65;;;17.40;99.90;;;;;;5075896;28;20036;-25
2023/07/19 07:48:43;;;;;;;7.28;1.60;;;17.40;99.90;;;;;;5075763;28;20133;-25
2023/07/19 07:51:09;;;;;;;5.50;2.05;;;17.80;99.90;;;;;;5076388;28;20040;-25
2023/07/19 07:53:35;;;;;;;4.18;1.73;;;18.70;99.90;;;;;;5075741;28;20137;-25
2023/07/19 07:56:01;;;;;;;5.13;1.58;;;19.20;99.90;;;;;;5075768;28;20045;-27
2023/07/19 07:58:26;;;;;;;5.32;1.40;;;19.10;99.90;;;;;;5075644;28;20472;-25
2023/07/19 08:00:54;;;;;;;7.90;1.67;;;18.60;99.90;;;;;;5058000;28;20048;-26
2023/07/19 08:03:20;;;;;;;5.30;1.85;;;18.80;1.00;;;;;;5074870;28;20056;-25
2023/07/19 08:05:46;;;;;;;4.95;2.10;;;19.30;99.90;;;;;;5075433;28;20049;-25
2023/07/19 08:08:11;;;;;;;7.45;1.95;;;19.60;99.90;;;;;;5075459;28;20044;-25
2023/07/19 08:10:40;;;;;;;4.70;1.70;;;20.20;99.90;;;;;;5057811;28;20048;-25
2023/07/19 08:13:08;;;;;;;6.57;1.98;;;20.20;1.00;;;;;;5075384;28;20087;-25
2023/07/19 08:15:36;;;;;;;3.60;1.30;;;20.30;1.00;;;;;;5076175;28;20102;-26
2023/07/19 08:18:02;;;;;;;3.67;1.33;;;20.60;99.90;;;;;;5074331;28;20475;-26
2023/07/19 08:20:27;;;;;;;3.83;1.42;;;20.70;99.90;;;;;;5074299;28;20077;-25
2023/07/19 08:22:53;;;;;;;4.82;1.40;;;20.80;99.90;;;;;;5074268;28;20398;-25
2023/07/19 08:25:22;;;;;;;4.35;1.00;;;20.60;22.00;;;;;;5074089;28;20414;-25
2023/07/19 08:27:48;;;;;;;3.13;1.20;;;20.70;99.90;;;;;;5073904;28;20045;-25
2023/07/19 08:30:17;;;;;;;4.80;1.40;;;20.70;1.00;;;;;;5075114;28;20053;-25
2023/07/19 08:32:47;;;;;;;4.72;1.25;;;20.40;59.90;;;;;;5075036;28;20109;-25
2023/07/19 08:35:14;;;;;;;4.13;0.93;;;20.30;99.90;;;;;;5074964;28;20084;-25
2023/07/19 08:37:42;;;;;;;3.83;1.20;;;19.90;1.00;;;;;;5075463;28;20048;-25
2023/07/19 08:40:12;;;;;;;5.25;1.45;;;19.20;99.90;;;;;;5075702;28;20040;-25
2023/07/19 08:42:39;;;;;;;3.83;1.42;;;18.50;1.00;;;;;;5074516;28;20490;-25
2023/07/19 08:45:10;;;;;;;4.28;0.90;;;18.10;99.90;;;;;;5075148;28;20051;-25
2023/07/19 08:47:38;;;;;;;5.07;1.08;;;17.90;1.00;;;;;;5073413;28;20058;-25
2023/07/19 08:50:04;;;;;;;3.80;1.42;;;17.90;99.90;;;;;;5073460;28;20052;-25
2023/07/19 08:52:34;;;;;;;3.38;1.33;;;18.10;99.90;;;;;;5074662;28;20041;-25
2023/07/19 08:55:02;;;;;;;5.40;1.10;;;18.30;99.90;;;;;;5074572;28;20048;-25
2023/07/19 08:57:29;;;;;;;4.72;1.50;;;18.60;99.90;;;;;;5074504;28;20056;-25
2023/07/19 08:59:54;;;;;;;4.38;1.77;;;18.90;1.00;;;;;;5074748;28;20123;-25
2023/07/19 09:02:21;;;;;;;4.15;1.42;;;18.90;1.00;;;;;;5073738;28;20088;-25
2023/07/19 09:05:19;;;;;;;5.68;1.58;;;18.80;1.00;;;;;;5074378;28;20508;-25
2023/07/19 09:07:48;;;;;;;2.95;1.60;;;18.50;1.00;;;;;;5029857;28;20049;-25
2023/07/19 09:10:16;;;;;;;4.63;1.33;;;18.30;99.90;;;;;;5072999;28;20397;-25
2023/07/19 09:12:44;;;;;;;3.10;1.17;;;18.30;99.90;;;;;;5074221;28;20055;-25
2023/07/19 09:15:12;;;;;;;9.07;1.40;;;18.50;99.90;;;;;;5074205;28;20048;-26
2023/07/19 09:17:44;;;;;;;2.22;1.13;;;19.20;99.90;;;;;;5073026;28;20390;-25
2023/07/19 09:20:11;;;;;;;4.10;1.25;;;19.60;99.90;;;;;;5074652;28;20040;-26
2023/07/19 09:22:38;;;;;;;3.38;0.80;;;19.70;99.90;;;;;;5073128;28;20054;-26
2023/07/19 09:25:05;;;;;;;3.78;1.20;;;19.50;99.90;;;;;;5073426;28;20095;-26
2023/07/19 09:27:32;;;;;;;6.85;1.50;;;19.00;72.00;;;;;;5074134;28;20048;-26
2023/07/19 09:29:58;;;;;;;4.95;1.02;;;18.60;99.90;;;;;;5074249;28;20040;-25
2023/07/19 09:32:24;;;;;;;3.65;1.02;;;18.40;99.90;;;;;;5072963;28;20499;-25
2023/07/19 09:34:54;;;;;;;5.43;1.17;;;18.70;1.00;;;;;;5074415;28;20040;-25
2023/07/19 09:37:25;;;;;;;2.55;1.10;;;19.60;1.00;;;;;;5073922;28;20047;-25
2023/07/19 09:39:52;;;;;;;1.70;0.90;;;20.80;99.90;;;;;;5074175;28;20479;-25
2023/07/19 09:42:19;;;;;;;3.65;0.80;;;21.60;99.90;;;;;;5074365;28;20049;-25
2023/07/19 09:44:48;;;;;;;4.18;0.95;;;21.30;99.90;;;;;;5073794;28;20044;-25
2023/07/19 09:47:15;;;;;;;6.00;1.10;;;20.50;99.90;;;;;;5073652;28;20047;-25
2023/07/19 09:49:42;;;;;;;3.88;0.65;;;19.60;99.90;;;;;;5072481;28;20052;-25
2023/07/19 09:52:10;;;;;;;1.85;0.90;;;18.90;1.00;;;;;;5055865;28;20044;-25
2023/07/19 09:54:36;;;;;;;1.70;0.63;;;18.50;99.90;;;;;;5074313;28;20131;-25
2023/07/19 09:57:04;;;;;;;2.15;0.55;;;18.50;99.90;;;;;;5073493;28;20045;-25
2023/07/19 09:59:47;;;;;;;3.65;1.63;;;18.70;1.00;;;;;;5056020;28;20040;-25
2023/07/19 10:02:13;;;;;;;1.50;0.80;;;19.10;99.90;;;;;;5074171;28;20098;-25
2023/07/19 10:04:40;;;;;;;3.10;1.33;;;20.10;1.00;;;;;;5072597;28;20053;-25
2023/07/19 10:07:08;;;;;;;1.60;0.75;;;21.10;99.90;;;;;;5073479;28;20051;-25
2023/07/19 10:09:40;;;;;;;2.67;0.77;;;21.00;99.90;;;;;;5074085;28;20056;-25
2023/07/19 10:12:16;;;;;;;3.10;0.70;;;20.60;99.90;;;;;;5072311;28;20387;-25
2023/07/19 10:14:54;;;;;;;1.85;0.47;;;19.60;1.00;;;;;;5073511;28;20052;-25
2023/07/19 10:17:20;;;;;;;3.25;0.52;;;19.30;99.90;;;;;;5073471;28;20045;-26
2023/07/19 10:20:14;;;;;;;3.33;0.93;;;19.20;1.00;;;;;;5073425;28;20048;-25
2023/07/19 10:22:51;;;;;;;1.83;0.40;;;19.50;57.00;;;;;;5073372;28;20049;-25
2023/07/19 10:25:31;;;;;;;4.10;1.05;;;19.90;99.90;;;;;;5073136;28;20371;-25
2023/07/19 10:28:11;;;;;;;2.58;0.60;;;20.60;1.00;;;;;;5072947;28;20045;-25
2023/07/19 10:30:54;;;;;;;3.08;0.50;;;21.20;1.00;;;;;;5073410;28;20051;-25
2023/07/19 10:33:28;;;;;;;1.33;0.30;;;21.30;1.00;;;;;;5073927;28;20051;-26
2023/07/19 10:36:08;;;;;;;3.05;0.93;;;21.00;99.90;;;;;;5073256;28;20090;-25
2023/07/19 10:38:34;;;;;;;2.80;0.70;;;20.70;99.90;;;;;;5073617;28;20123;-26
2023/07/19 10:41:05;;;;;;;2.63;0.47;;;20.30;99.90;;;;;;5072131;28;20051;-25
2023/07/19 10:43:33;;;;;;;2.63;0.63;;;20.20;99.90;;;;;;5073265;28;20048;-26
2023/07/19 10:46:03;;;;;;;1.77;0.70;;;20.50;99.90;;;;;;5073063;28;20098;-25
2023/07/19 10:48:32;;;;;;;3.17;0.80;;;20.60;99.60;;;;;;5072153;28;20058;-25
2023/07/19 10:51:07;;;;;;;2.50;0.82;;;20.40;1.00;;;;;;5073122;28;20040;-25
2023/07/19 10:53:43;;;;;;;2.55;0.60;;;20.70;22.10;;;;;;5073910;28;20075;-26
2023/07/19 10:56:08;;;;;;;3.20;0.82;;;21.60;1.00;;;;;;5073546;28;20040;-26
2023/07/19 10:58:34;;;;;;;4.25;0.77;;;22.80;99.90;;;;;;5073003;28;20127;-26
2023/07/19 11:01:01;;;;;;;2.65;0.57;;;23.10;99.90;;;;;;5073050;28;20117;-26
2023/07/19 11:03:27;;;;;;;0.82;0.30;;;22.80;61.50;;;;;;5072622;28;20079;-26
2023/07/19 11:05:53;;;;;;;4.63;0.88;;;21.60;99.90;;;;;;5071737;28;20087;-26
2023/07/19 11:08:27;;;;;;;1.35;0.77;;;21.50;1.00;;;;;;5076395;28;20048;-25
2023/07/19 11:10:55;;;;;;;2.15;0.65;;;21.60;99.90;;;;;;5076844;28;20540;-26
2023/07/19 11:13:23;;;;;;;3.30;0.57;;;21.80;99.90;;;;;;5075427;28;20049;-27
2023/07/19 11:15:54;;;;;;;1.65;0.52;;;21.70;99.90;;;;;;5075227;28;20048;-26
2023/07/19 11:18:34;;;;;;;3.00;0.68;;;21.90;99.90;;;;;;5076476;28;20083;-26
2023/07/19 11:21:00;;;;;;;1.08;0.55;;;21.80;99.90;;;;;;5076257;28;20076;-26
2023/07/19 11:23:28;;;;;;;1.75;0.40;;;21.20;99.90;;;;;;5076402;28;20482;-26
2023/07/19 11:26:10;;;;;;;2.33;0.45;;;20.70;1.00;;;;;;5074648;28;20109;-26
2023/07/19 11:29:06;;;;;;;1.60;0.47;;;20.80;99.90;;;;;;5075754;28;20094;-26
2023/07/19 11:31:33;;;;;;;2.20;0.50;;;20.70;99.90;;;;;;5076298;28;20048;-26
2023/07/19 11:34:10;;;;;;;3.15;0.70;;;20.40;99.90;;;;;;5076071;28;20059;-26
2023/07/19 11:36:43;;;;;;;2.13;0.70;;;20.70;99.90;;;;;;5076057;28;20414;-26
2023/07/19 11:39:16;;;;;;;2.85;0.73;;;20.70;34.40;;;;;;5047694;28;20125;-27
2023/07/19 11:41:43;;;;;;;0.88;0.38;;;21.40;99.90;;;;;;5055970;28;20041;-27
2023/07/19 11:44:16;;;;;;;1.67;0.40;;;21.70;1.00;;;;;;5048810;28;20050;-26
2023/07/19 11:46:43;;;;;;;2.38;0.57;;;22.00;71.70;;;;;;5055456;28;20091;-26
2023/07/19 11:49:10;;;;;;;2.03;0.57;;;22.20;99.90;;;;;;5055881;28;20041;-27
2023/07/19 11:51:39;;;;;;;2.38;0.32;;;21.90;98.40;;;;;;5054909;28;20072;-26
2023/07/19 11:54:05;;;;;;;2.45;0.47;;;21.90;99.90;;;;;;5056675;28;20052;-25
2023/07/19 11:56:31;;;;;;;2.78;0.52;;;22.10;99.90;;;;;;5054975;28;20550;-26
2023/07/19 11:58:57;;;;;;;1.73;0.60;;;20.80;79.50;;;;;;5056263;28;20407;-26
2023/07/19 12:01:25;;;;;;;2.75;0.40;;;20.40;1.00;;;;;;5056175;28;20104;-27
2023/07/19 12:03:50;;;;;;;1.77;0.50;;;20.50;99.90;;;;;;5056142;28;20060;-26
2023/07/19 12:06:16;;;;;;;3.17;0.70;;;20.50;99.90;;;;;;5050108;28;20045;-27
2023/07/19 12:08:42;;;;;;;1.52;0.30;;;21.00;99.90;;;;;;5054570;28;20471;-27
2023/07/19 12:11:08;;;;;;;2.53;0.88;;;21.00;1.00;;;;;;5055454;28;20483;-26
2023/07/19 12:13:36;;;;;;;1.80;0.70;;;20.80;1.00;;;;;;5050376;28;20106;-27
2023/07/19 12:16:03;;;;;;;2.08;0.32;;;20.50;99.90;;;;;;5046199;28;20482;-26
2023/07/19 12:18:29;;;;;;;2.92;0.57;;;20.60;1.00;;;;;;5054141;28;20490;-25
2023/07/19 12:20:56;;;;;;;1.30;0.30;;;20.30;99.90;;;;;;5026853;28;20051;-25
2023/07/19 12:23:22;;;;;;;1.35;0.30;;;20.30;99.90;;;;;;5042424;28;20440;-28
2023/07/19 12:25:48;;;;;;;4.53;0.55;;;20.60;99.90;;;;;;5034634;28;20148;-27
2023/07/19 12:28:14;;;;;;;1.02;0.40;;;20.70;99.90;;;;;;5054184;28;20403;-27
2023/07/19 12:30:41;;;;;;;2.80;0.57;;;20.70;1.00;;;;;;5055118;28;20055;-26
2023/07/19 12:33:07;;;;;;;2.58;0.60;;;21.00;1.00;;;;;;5056198;28;20124;-27
2023/07/19 12:35:32;;;;;;;0.65;0.30;;;21.60;99.90;;;;;;5055015;28;20088;-26
2023/07/19 12:37:58;;;;;;;1.20;0.30;;;21.80;99.90;;;;;;5055011;28;20072;-26
2023/07/19 12:40:24;;;;;;;1.98;0.50;;;22.20;99.90;;;;;;5053721;28;20099;-27
2023/07/19 12:42:50;;;;;;;1.55;0.60;;;21.90;99.90;;;;;;5047319;28;20041;-26
2023/07/19 12:45:17;;;;;;;2.70;0.60;;;22.00;99.90;;;;;;5051539;28;20045;-27